Time;durP1;ratioP1;P1;durP2;ratioP2;P2;SDS_P1;SDS_P2;PMS_P1;PMS_P2;Temp;Humidity;BMP_temperature;BMP_pressure;BME280_temperature;BME280_humidity;BME280_pressure;Samples;Min_cycle;Max_cycle;Signal;HPM_P1;HPM_P2
2023/05/16 00:01:09;;;;;;;2.20;2.00;;;15.20;99.90;;;;;;6274902;28;20500;-68
2023/05/16 00:04:12;;;;;;;2.40;1.87;;;15.10;99.90;;;;;;6274860;28;20474;-68
2023/05/16 00:07:15;;;;;;;2.20;2.00;;;15.10;99.90;;;;;;6274751;28;20478;-68
2023/05/16 00:10:19;;;;;;;2.63;2.43;;;15.10;99.90;;;;;;6274962;28;20474;-68
2023/05/16 00:13:25;;;;;;;2.43;1.90;;;15.00;99.90;;;;;;6275539;28;20478;-68
2023/05/16 00:16:29;;;;;;;2.80;1.70;;;15.10;99.90;;;;;;6275220;28;20975;-68
2023/05/16 00:19:32;;;;;;;3.00;2.67;;;15.00;99.90;;;;;;6275096;28;20470;-68
2023/05/16 00:22:36;;;;;;;2.77;2.57;;;15.00;99.90;;;;;;6275479;28;20449;-69
2023/05/16 00:25:39;;;;;;;2.27;2.10;;;15.10;99.90;;;;;;6274745;28;20482;-68
2023/05/16 00:28:43;;;;;;;2.93;2.60;;;15.10;99.90;;;;;;6273795;28;20438;-68
2023/05/16 00:31:47;;;;;;;2.40;2.30;;;15.10;99.90;;;;;;6274319;28;20450;-68
2023/05/16 00:34:50;;;;;;;2.50;2.30;;;14.90;99.90;;;;;;6274448;28;20478;-68
2023/05/16 00:37:54;;;;;;;2.50;2.30;;;14.90;99.90;;;;;;6268438;28;20466;-68
2023/05/16 00:40:57;;;;;;;2.23;2.03;;;14.90;99.90;;;;;;6272882;28;20957;-69
2023/05/16 00:44:00;;;;;;;2.60;2.40;;;14.90;99.90;;;;;;6273399;28;20466;-68
2023/05/16 00:47:05;;;;;;;3.43;2.17;;;14.80;99.90;;;;;;6275316;28;20466;-68
2023/05/16 00:50:10;;;;;;;2.70;2.20;;;14.90;99.90;;;;;;6281395;28;20466;-68
2023/05/16 00:53:13;;;;;;;6.10;2.43;;;14.80;99.90;;;;;;6274031;28;20477;-68
2023/05/16 00:56:17;;;;;;;2.20;2.00;;;14.80;99.90;;;;;;6274412;28;20470;-68
2023/05/16 00:59:20;;;;;;;2.97;2.47;;;14.70;99.90;;;;;;6274494;28;20478;-67
2023/05/16 01:02:27;;;;;;;2.83;2.63;;;14.60;99.90;;;;;;6274066;28;20854;-68
2023/05/16 01:05:31;;;;;;;3.50;2.90;;;14.60;99.90;;;;;;6271389;28;20524;-68
2023/05/16 01:08:34;;;;;;;3.00;2.80;;;14.60;99.90;;;;;;6272888;28;20773;-67
2023/05/16 01:11:43;;;;;;;3.70;2.70;;;14.60;99.90;;;;;;6272249;28;20470;-68
2023/05/16 01:14:54;;;;;;;4.10;3.10;;;14.60;99.90;;;;;;6273797;28;20466;-68
2023/05/16 01:18:20;;;;;;;3.00;2.30;;;14.60;99.90;;;;;;6273547;28;20477;-66
2023/05/16 01:21:39;;;;;;;2.87;2.67;;;14.60;99.90;;;;;;6272719;28;20800;-67
2023/05/16 01:24:57;;;;;;;4.83;3.33;;;14.60;99.90;;;;;;6274393;28;20474;-68
2023/05/16 01:28:02;;;;;;;5.67;2.60;;;14.60;99.90;;;;;;6273536;28;20478;-67
2023/05/16 01:31:06;;;;;;;3.17;2.87;;;14.60;99.90;;;;;;6272922;28;20778;-67
2023/05/16 01:34:09;;;;;;;5.07;2.97;;;14.60;99.90;;;;;;6271610;28;20553;-67
2023/05/16 01:37:19;;;;;;;3.10;2.80;;;14.60;99.90;;;;;;6274038;28;20485;-67
2023/05/16 01:40:42;;;;;;;4.97;2.90;;;14.60;99.90;;;;;;6272045;28;20953;-68
2023/05/16 01:43:52;;;;;;;3.57;2.70;;;14.60;99.90;;;;;;6273128;28;20455;-67
2023/05/16 01:46:59;;;;;;;6.13;2.77;;;14.60;99.90;;;;;;6268501;28;20466;-68
2023/05/16 01:50:08;;;;;;;4.97;3.10;;;14.50;99.90;;;;;;6273804;28;20933;-67
2023/05/16 01:53:16;;;;;;;4.97;2.33;;;14.50;99.90;;;;;;6274460;28;20481;-67
2023/05/16 01:56:21;;;;;;;3.87;3.50;;;14.50;99.90;;;;;;6275317;28;20485;-68
2023/05/16 01:59:27;;;;;;;2.93;2.73;;;14.50;99.90;;;;;;6274520;28;20482;-68
2023/05/16 02:02:31;;;;;;;3.60;3.30;;;14.40;99.90;;;;;;6274352;28;20481;-68
2023/05/16 02:05:34;;;;;;;2.60;2.40;;;14.40;99.90;;;;;;6277124;28;21043;-68
2023/05/16 02:08:37;;;;;;;2.97;2.77;;;14.40;99.90;;;;;;6278587;28;20475;-68
2023/05/16 02:11:40;;;;;;;2.37;2.20;;;14.40;99.90;;;;;;6278513;28;20470;-68
2023/05/16 02:14:45;;;;;;;3.80;2.70;;;14.40;99.90;;;;;;6278811;28;20470;-68
2023/05/16 02:17:48;;;;;;;3.10;2.80;;;14.40;99.90;;;;;;6278723;28;20470;-69
2023/05/16 02:20:52;;;;;;;5.27;2.80;;;14.40;99.90;;;;;;6278299;28;20957;-68
2023/05/16 02:23:55;;;;;;;3.30;3.00;;;14.30;99.90;;;;;;6278298;28;20474;-68
2023/05/16 02:26:58;;;;;;;3.03;2.77;;;14.30;99.90;;;;;;6277949;28;20488;-68
2023/05/16 02:30:04;;;;;;;3.23;2.93;;;14.30;99.90;;;;;;6277668;28;20999;-69
2023/05/16 02:33:07;;;;;;;2.83;2.53;;;14.30;99.90;;;;;;6279905;28;20572;-69
2023/05/16 02:36:11;;;;;;;2.93;2.33;;;14.30;99.90;;;;;;6283675;28;20842;-69
2023/05/16 02:39:14;;;;;;;3.33;3.03;;;14.30;99.90;;;;;;6284197;28;20482;-69
2023/05/16 02:42:17;;;;;;;3.50;3.20;;;14.30;99.90;;;;;;6288143;28;20470;-69
2023/05/16 02:45:22;;;;;;;5.23;3.00;;;14.30;99.90;;;;;;6279835;28;20937;-69
2023/05/16 02:48:25;;;;;;;2.60;2.40;;;14.40;99.90;;;;;;6288266;28;20485;-69
2023/05/16 02:51:28;;;;;;;3.50;2.90;;;14.40;99.90;;;;;;6295871;28;20548;-69
2023/05/16 02:54:31;;;;;;;3.97;3.33;;;14.40;99.90;;;;;;6291748;28;20499;-69
2023/05/16 02:57:35;;;;;;;2.67;2.47;;;14.40;99.90;;;;;;6292026;28;20816;-69
2023/05/16 03:00:39;;;;;;;4.23;2.57;;;14.40;99.90;;;;;;6278434;28;20980;-69
2023/05/16 03:03:42;;;;;;;3.00;2.63;;;14.40;99.90;;;;;;6277926;28;20505;-69
2023/05/16 03:06:46;;;;;;;2.80;2.60;;;14.50;99.90;;;;;;6277309;28;20496;-69
2023/05/16 03:09:49;;;;;;;3.37;3.07;;;14.50;99.90;;;;;;6277331;28;20575;-68
2023/05/16 03:12:52;;;;;;;4.13;2.87;;;14.50;99.90;;;;;;6276786;28;20473;-68
2023/05/16 03:15:57;;;;;;;3.13;2.73;;;14.50;99.90;;;;;;6276277;28;20807;-69
2023/05/16 03:19:00;;;;;;;4.90;3.30;;;14.50;99.90;;;;;;6276630;28;20557;-68
2023/05/16 03:22:04;;;;;;;3.40;2.60;;;14.50;99.90;;;;;;6276836;28;20485;-68
2023/05/16 03:25:07;;;;;;;2.80;2.60;;;14.50;99.90;;;;;;6276963;28;20478;-69
2023/05/16 03:28:10;;;;;;;3.33;2.90;;;14.40;99.90;;;;;;6276369;28;20481;-70
2023/05/16 03:31:18;;;;;;;3.17;2.60;;;14.40;99.90;;;;;;6276457;28;20482;-69
2023/05/16 03:34:21;;;;;;;5.93;3.00;;;14.50;99.90;;;;;;6276318;28;20477;-69
2023/05/16 03:37:25;;;;;;;3.07;2.70;;;14.40;99.90;;;;;;6276438;28;20470;-69
2023/05/16 03:40:28;;;;;;;3.13;2.83;;;14.40;99.90;;;;;;6275977;28;20481;-69
2023/05/16 03:43:32;;;;;;;4.90;3.83;;;14.40;99.90;;;;;;6276024;28;20458;-69
2023/05/16 03:46:36;;;;;;;4.70;3.20;;;14.40;99.90;;;;;;6271809;28;20482;-69
2023/05/16 03:49:40;;;;;;;3.40;3.10;;;14.40;99.90;;;;;;6276245;28;20553;-69
2023/05/16 03:52:43;;;;;;;4.40;3.70;;;14.40;99.90;;;;;;6275935;28;20446;-69
2023/05/16 03:55:47;;;;;;;3.77;3.30;;;14.40;99.90;;;;;;6276271;28;20735;-68
2023/05/16 03:58:50;;;;;;;3.50;3.20;;;14.50;99.90;;;;;;6276036;28;20442;-68
2023/05/16 04:01:55;;;;;;;6.43;3.53;;;14.40;99.90;;;;;;6276724;28;20494;-68
2023/05/16 04:04:58;;;;;;;3.73;3.40;;;14.40;99.90;;;;;;6276025;28;21051;-68
2023/05/16 04:08:01;;;;;;;3.90;3.23;;;14.40;99.90;;;;;;6275591;28;20477;-69
2023/05/16 04:11:04;;;;;;;3.27;2.97;;;14.40;99.90;;;;;;6275424;28;20823;-69
2023/05/16 04:14:08;;;;;;;5.10;3.80;;;14.50;99.90;;;;;;6275496;28;20481;-69
2023/05/16 04:17:12;;;;;;;4.67;3.50;;;14.50;99.90;;;;;;6275833;28;20545;-69
2023/05/16 04:20:16;;;;;;;5.63;4.10;;;14.50;99.90;;;;;;6275194;28;20466;-69
2023/05/16 04:23:20;;;;;;;4.90;4.23;;;14.40;99.90;;;;;;6275430;28;20586;-68
2023/05/16 04:26:23;;;;;;;6.03;4.20;;;14.40;99.90;;;;;;6275186;28;20478;-68
2023/05/16 04:29:26;;;;;;;24.60;12.87;;;14.30;99.90;;;;;;6275180;28;20467;-68
2023/05/16 04:32:34;;;;;;;62.57;27.90;;;14.20;99.90;;;;;;6274955;28;20485;-68
2023/05/16 04:35:37;;;;;;;21.17;11.10;;;14.10;99.90;;;;;;6275151;28;20937;-69
2023/05/16 04:38:40;;;;;;;8.00;5.50;;;14.20;99.90;;;;;;6274609;28;20481;-68
2023/05/16 04:41:43;;;;;;;4.20;3.90;;;14.20;99.90;;;;;;6275351;28;20481;-68
2023/05/16 04:44:47;;;;;;;4.90;3.90;;;14.30;99.90;;;;;;6274648;28;20485;-69
2023/05/16 04:47:52;;;;;;;8.20;6.80;;;14.30;99.90;;;;;;6275163;28;20466;-68
2023/05/16 04:50:56;;;;;;;9.63;4.20;;;14.40;99.90;;;;;;6274552;28;20485;-68
2023/05/16 04:53:59;;;;;;;8.87;5.30;;;14.40;99.90;;;;;;6274515;28;20937;-68
2023/05/16 04:57:02;;;;;;;4.40;3.67;;;14.40;99.90;;;;;;6274835;28;20481;-68
2023/05/16 05:00:09;;;;;;;4.87;4.40;;;14.50;99.90;;;;;;6274493;28;20482;-68
2023/05/16 05:03:13;;;;;;;4.90;4.03;;;14.50;99.90;;;;;;6274591;28;20482;-68
2023/05/16 05:06:16;;;;;;;6.07;4.67;;;14.60;99.90;;;;;;6274239;28;20484;-68
2023/05/16 05:09:20;;;;;;;4.73;4.17;;;14.60;99.90;;;;;;6274497;28;20535;-68
2023/05/16 05:12:24;;;;;;;4.67;4.23;;;14.50;99.90;;;;;;6274829;28;20914;-68
2023/05/16 05:15:27;;;;;;;2.90;2.70;;;14.50;99.90;;;;;;6280033;28;20489;-68
2023/05/16 05:18:32;;;;;;;3.40;3.10;;;14.50;99.90;;;;;;6283328;28;20545;-68
2023/05/16 05:21:35;;;;;;;4.10;2.80;;;14.50;99.90;;;;;;6274607;28;20584;-68
2023/05/16 05:24:39;;;;;;;5.43;3.10;;;14.50;99.90;;;;;;6274057;28;20469;-69
2023/05/16 05:27:42;;;;;;;4.47;3.20;;;14.50;99.90;;;;;;6274233;28;20478;-68
2023/05/16 05:30:47;;;;;;;3.63;3.00;;;14.50;99.90;;;;;;6274396;28;20481;-69
2023/05/16 05:33:51;;;;;;;4.03;3.37;;;14.50;99.90;;;;;;6275533;28;20480;-68
2023/05/16 05:36:55;;;;;;;2.70;2.50;;;14.50;99.90;;;;;;6275769;28;20466;-68
2023/05/16 05:39:59;;;;;;;4.97;3.00;;;14.50;99.90;;;;;;6276511;28;20489;-68
2023/05/16 05:43:02;;;;;;;3.43;3.13;;;14.50;99.90;;;;;;6279378;28;20469;-69
2023/05/16 05:46:06;;;;;;;3.60;3.20;;;14.50;99.90;;;;;;6279222;28;20478;-68
2023/05/16 05:49:11;;;;;;;4.20;3.80;;;14.60;99.90;;;;;;6279520;28;20465;-68
2023/05/16 05:52:14;;;;;;;6.13;4.03;;;14.60;99.90;;;;;;6280145;28;20489;-65
2023/05/16 05:55:17;;;;;;;5.90;4.20;;;14.60;99.90;;;;;;6278784;28;20474;-67
2023/05/16 05:58:22;;;;;;;6.20;4.67;;;14.60;99.90;;;;;;6269560;28;20485;-67
2023/05/16 06:01:25;;;;;;;4.90;4.47;;;14.70;99.90;;;;;;6278618;28;20489;-68
2023/05/16 06:04:29;;;;;;;5.00;4.10;;;14.70;99.90;;;;;;6278652;28;20523;-68
2023/05/16 06:07:33;;;;;;;4.60;4.20;;;14.70;99.90;;;;;;6278020;28;20531;-68
2023/05/16 06:10:36;;;;;;;4.27;3.97;;;14.70;99.90;;;;;;6278174;28;20818;-68
2023/05/16 06:13:39;;;;;;;5.57;4.87;;;14.60;99.90;;;;;;6278755;28;20442;-68
2023/05/16 06:16:42;;;;;;;4.77;4.37;;;14.60;99.90;;;;;;6278589;28;20446;-68
2023/05/16 06:19:47;;;;;;;5.60;4.83;;;14.60;99.90;;;;;;6278260;28;20926;-68
2023/05/16 06:22:50;;;;;;;4.00;3.63;;;14.50;99.90;;;;;;6278405;28;20454;-68
2023/05/16 06:25:53;;;;;;;5.37;3.70;;;14.60;99.90;;;;;;6278383;28;20798;-68
2023/05/16 06:28:56;;;;;;;4.93;4.47;;;14.50;99.90;;;;;;6278108;28;20462;-67
2023/05/16 06:31:59;;;;;;;5.27;4.50;;;14.50;99.90;;;;;;6277626;28;20992;-68
2023/05/16 06:35:05;;;;;;;6.00;4.93;;;14.50;99.90;;;;;;6277971;28;20494;-68
2023/05/16 06:38:08;;;;;;;4.53;4.17;;;14.40;99.90;;;;;;6277690;28;20478;-68
2023/05/16 06:41:11;;;;;;;4.67;4.27;;;14.10;99.90;;;;;;6277768;28;20474;-68
2023/05/16 06:44:14;;;;;;;6.00;5.50;;;13.90;99.90;;;;;;6277567;28;20485;-68
2023/05/16 06:47:17;;;;;;;7.57;5.90;;;13.70;99.90;;;;;;6277399;28;20481;-69
2023/05/16 06:50:22;;;;;;;7.00;6.40;;;13.60;99.90;;;;;;6276931;28;20792;-68
2023/05/16 06:53:26;;;;;;;6.50;5.83;;;13.70;99.90;;;;;;6278001;28;20474;-68
2023/05/16 06:56:30;;;;;;;8.30;6.80;;;13.60;99.90;;;;;;6277715;28;20496;-68
2023/05/16 06:59:33;;;;;;;10.60;7.40;;;13.50;99.90;;;;;;6272254;28;20493;-68
2023/05/16 07:02:37;;;;;;;8.20;7.17;;;13.50;99.90;;;;;;6277420;28;20470;-68
2023/05/16 07:05:41;;;;;;;11.27;8.57;;;13.70;99.90;;;;;;6277998;28;20527;-68
2023/05/16 07:08:45;;;;;;;7.20;6.50;;;13.80;99.90;;;;;;6277479;28;20462;-69
2023/05/16 07:11:48;;;;;;;10.50;7.23;;;13.90;99.90;;;;;;6276867;28;20553;-69
2023/05/16 07:14:51;;;;;;;8.60;7.70;;;14.00;99.90;;;;;;6276886;28;20474;-69
2023/05/16 07:17:54;;;;;;;8.10;7.37;;;14.00;99.90;;;;;;6277510;28;20541;-68
2023/05/16 07:20:59;;;;;;;9.80;8.13;;;14.10;99.90;;;;;;6276681;28;20571;-68
2023/05/16 07:24:02;;;;;;;11.23;8.77;;;14.20;99.90;;;;;;6276625;28;20476;-68
2023/05/16 07:27:05;;;;;;;8.70;7.80;;;14.20;99.90;;;;;;6276708;28;20477;-67
2023/05/16 07:30:11;;;;;;;9.80;8.57;;;14.40;99.90;;;;;;6276044;28;20497;-68
2023/05/16 07:33:15;;;;;;;10.53;9.43;;;14.40;99.90;;;;;;6276438;28;20549;-68
2023/05/16 07:36:20;;;;;;;9.10;6.93;;;14.50;99.90;;;;;;6276169;28;20470;-68
2023/05/16 07:39:23;;;;;;;7.70;6.90;;;14.70;99.90;;;;;;6276333;28;20552;-68
2023/05/16 07:42:26;;;;;;;7.10;6.40;;;14.70;99.90;;;;;;6275418;28;20466;-68
2023/05/16 07:45:29;;;;;;;7.20;6.50;;;14.70;99.90;;;;;;6275750;28;20933;-67
2023/05/16 07:48:33;;;;;;;6.97;6.37;;;14.70;99.90;;;;;;6278592;28;20477;-65
2023/05/16 07:51:37;;;;;;;7.07;6.47;;;14.70;99.90;;;;;;6278382;28;20484;-66
2023/05/16 07:54:40;;;;;;;7.23;6.43;;;14.60;99.90;;;;;;6275531;28;21019;-66
2023/05/16 07:57:44;;;;;;;7.90;6.60;;;14.70;99.90;;;;;;6276081;28;20474;-67
2023/05/16 08:00:47;;;;;;;7.70;6.50;;;14.70;99.90;;;;;;6276277;28;20474;-66
2023/05/16 08:03:51;;;;;;;6.80;6.10;;;14.70;99.90;;;;;;6270365;28;20988;-66
2023/05/16 08:06:55;;;;;;;6.60;6.07;;;14.80;99.90;;;;;;6275912;28;20603;-67
2023/05/16 08:09:59;;;;;;;7.67;6.80;;;14.90;99.90;;;;;;6275442;28;20478;-66
2023/05/16 08:13:02;;;;;;;9.80;7.50;;;14.90;99.90;;;;;;6275516;28;20553;-66
2023/05/16 08:16:06;;;;;;;8.60;7.20;;;14.90;99.90;;;;;;6274685;28;20480;-65
2023/05/16 08:19:09;;;;;;;9.97;7.30;;;14.80;99.90;;;;;;6273134;28;20477;-66
2023/05/16 08:22:14;;;;;;;8.37;7.40;;;14.70;99.90;;;;;;6274497;28;20477;-65
2023/05/16 08:25:17;;;;;;;9.97;8.97;;;14.70;99.90;;;;;;6273573;28;20465;-65
2023/05/16 08:28:20;;;;;;;9.63;6.27;;;14.70;99.90;;;;;;6272788;28;20478;-66
2023/05/16 08:31:23;;;;;;;7.50;6.80;;;14.70;99.90;;;;;;6278220;28;20620;-65
2023/05/16 08:34:26;;;;;;;7.17;6.57;;;14.70;99.90;;;;;;6291801;28;20476;-65
2023/05/16 08:37:32;;;;;;;9.70;7.03;;;14.70;99.90;;;;;;6273115;28;20481;-65
2023/05/16 08:40:36;;;;;;;7.63;6.90;;;14.80;99.90;;;;;;6273339;28;20555;-65
2023/05/16 08:43:39;;;;;;;7.10;6.33;;;14.70;99.90;;;;;;6273744;28;20471;-66
2023/05/16 08:46:46;;;;;;;6.90;6.30;;;14.80;99.90;;;;;;6274532;28;20463;-66
2023/05/16 08:49:51;;;;;;;9.30;8.07;;;14.80;99.90;;;;;;6274960;28;20524;-66
2023/05/16 08:52:56;;;;;;;6.33;5.73;;;14.70;99.90;;;;;;6272842;28;20535;-66
2023/05/16 08:56:00;;;;;;;9.33;6.77;;;14.80;99.90;;;;;;6273776;28;20811;-66
2023/05/16 08:59:05;;;;;;;6.17;5.67;;;15.20;99.90;;;;;;6272209;28;20535;-66
2023/05/16 09:02:08;;;;;;;5.87;5.37;;;16.10;99.90;;;;;;6272971;28;20474;-67
2023/05/16 09:05:13;;;;;;;6.93;6.27;;;17.20;99.90;;;;;;6267385;28;20470;-67
2023/05/16 09:08:19;;;;;;;6.20;5.70;;;17.60;99.90;;;;;;6272780;28;20478;-67
2023/05/16 09:11:22;;;;;;;5.83;4.90;;;17.80;99.90;;;;;;6269969;28;20797;-67
2023/05/16 09:14:25;;;;;;;4.93;4.43;;;18.30;99.90;;;;;;6273389;28;20779;-67
2023/05/16 09:17:35;;;;;;;5.63;5.13;;;18.50;99.90;;;;;;6274091;28;20241;-66
2023/05/16 09:20:46;;;;;;;4.97;4.53;;;18.60;99.90;;;;;;6270443;28;20474;-66
2023/05/16 09:23:51;;;;;;;6.80;5.53;;;18.50;99.90;;;;;;6273770;28;20789;-66
2023/05/16 09:26:54;;;;;;;5.50;5.10;;;18.60;99.90;;;;;;6271569;28;20281;-68
2023/05/16 09:29:58;;;;;;;6.70;5.37;;;18.50;99.90;;;;;;6271406;28;20241;-70
2023/05/16 09:33:02;;;;;;;6.10;5.53;;;18.20;99.90;;;;;;6274107;28;20474;-69
2023/05/16 09:36:06;;;;;;;5.90;5.40;;;18.00;99.90;;;;;;6273864;28;20474;-69
2023/05/16 09:39:15;;;;;;;5.73;5.13;;;17.70;99.90;;;;;;6273792;28;20816;-68
2023/05/16 09:42:20;;;;;;;6.70;6.03;;;17.50;99.90;;;;;;6273141;28;20479;-69
2023/05/16 09:45:23;;;;;;;7.80;6.60;;;17.20;99.90;;;;;;6274080;28;20474;-68
2023/05/16 09:48:27;;;;;;;6.87;5.80;;;17.00;99.90;;;;;;6271291;28;20466;-68
2023/05/16 09:51:31;;;;;;;6.00;5.50;;;16.80;99.90;;;;;;6273336;28;20476;-68
2023/05/16 09:54:35;;;;;;;7.13;6.40;;;16.70;99.90;;;;;;6273671;28;21072;-68
2023/05/16 09:57:39;;;;;;;7.23;6.53;;;16.50;99.90;;;;;;6273962;28;20472;-69
2023/05/16 10:00:42;;;;;;;6.33;5.70;;;16.30;99.90;;;;;;6274094;28;20822;-69
2023/05/16 10:03:46;;;;;;;8.60;6.03;;;16.10;99.90;;;;;;6274201;28;20465;-69
2023/05/16 10:06:51;;;;;;;6.93;6.33;;;15.90;99.90;;;;;;6273491;28;20501;-69
2023/05/16 10:09:56;;;;;;;6.73;6.13;;;15.80;99.90;;;;;;6274773;28;20767;-68
2023/05/16 10:13:06;;;;;;;6.90;6.20;;;15.80;99.90;;;;;;6275905;28;20866;-69
2023/05/16 10:16:11;;;;;;;6.83;6.23;;;15.80;99.90;;;;;;6273874;28;20469;-69
2023/05/16 10:19:16;;;;;;;10.57;6.90;;;15.90;99.90;;;;;;6273122;28;20570;-69
2023/05/16 10:22:21;;;;;;;6.83;6.23;;;15.90;99.90;;;;;;6272982;28;20488;-69
2023/05/16 10:25:32;;;;;;;7.63;6.90;;;15.80;99.90;;;;;;6274813;28;20477;-68
2023/05/16 10:28:36;;;;;;;7.57;6.97;;;15.60;99.90;;;;;;6277931;28;20543;-69
2023/05/16 10:31:40;;;;;;;7.07;6.43;;;15.50;99.90;;;;;;6278239;28;20442;-68
2023/05/16 10:34:45;;;;;;;7.60;6.80;;;15.40;99.90;;;;;;6278366;28;20449;-68
2023/05/16 10:37:49;;;;;;;8.00;7.30;;;15.30;99.90;;;;;;6261375;28;20426;-69
2023/05/16 10:40:54;;;;;;;8.90;5.90;;;15.20;99.90;;;;;;6277751;28;20509;-69
2023/05/16 10:44:01;;;;;;;6.57;5.87;;;15.20;99.90;;;;;;6277160;28;20549;-69
2023/05/16 10:47:04;;;;;;;6.40;5.90;;;15.20;99.90;;;;;;6277521;28;20530;-69
2023/05/16 10:50:08;;;;;;;8.17;5.87;;;15.20;99.90;;;;;;6276074;28;20976;-70
2023/05/16 10:53:19;;;;;;;7.13;6.43;;;15.30;99.90;;;;;;6266274;28;20953;-70
2023/05/16 10:56:27;;;;;;;6.67;6.07;;;15.50;99.90;;;;;;6274746;28;20983;-69
2023/05/16 10:59:40;;;;;;;7.10;6.50;;;15.60;99.90;;;;;;6275125;28;20504;-68
2023/05/16 11:02:44;;;;;;;5.90;5.40;;;15.60;99.90;;;;;;6275765;28;20942;-67
2023/05/16 11:05:52;;;;;;;7.10;5.87;;;15.80;99.90;;;;;;6276361;28;20550;-67
2023/05/16 11:09:05;;;;;;;7.67;6.97;;;16.00;99.90;;;;;;6274520;28;20958;-69
2023/05/16 11:12:10;;;;;;;6.27;5.67;;;16.10;99.90;;;;;;6277405;28;20578;-71
2023/05/16 11:15:21;;;;;;;7.03;6.43;;;16.10;99.90;;;;;;6276776;28;20476;-69
2023/05/16 11:18:25;;;;;;;7.20;6.60;;;16.30;99.90;;;;;;6276800;28;20466;-69
2023/05/16 11:22:04;;;;;;;7.17;5.83;;;16.70;99.90;;;;;;6275119;28;20470;-68
2023/05/16 11:25:09;;;;;;;6.00;4.90;;;16.90;99.90;;;;;;6275720;28;20467;-68
2023/05/16 11:28:14;;;;;;;6.00;5.10;;;16.70;99.90;;;;;;6275794;28;20857;-68
2023/05/16 11:31:18;;;;;;;5.50;5.00;;;16.40;99.90;;;;;;6276006;28;20487;-68
2023/05/16 11:34:21;;;;;;;5.83;5.33;;;16.20;99.90;;;;;;6276056;28;20465;-68
2023/05/16 11:37:25;;;;;;;5.53;5.07;;;16.10;99.90;;;;;;6276086;28;20470;-68
2023/05/16 11:40:28;;;;;;;5.97;5.40;;;15.90;99.90;;;;;;6275897;28;20763;-68
2023/05/16 11:43:40;;;;;;;6.03;5.53;;;15.80;99.90;;;;;;6276378;28;20561;-69
2023/05/16 11:46:44;;;;;;;6.73;6.13;;;15.60;99.90;;;;;;6275439;28;20618;-66
2023/05/16 11:49:48;;;;;;;5.50;5.00;;;15.50;99.90;;;;;;6275905;28;20565;-66
2023/05/16 11:52:54;;;;;;;5.57;5.00;;;15.40;99.90;;;;;;6251660;28;20878;-65
2023/05/16 11:56:00;;;;;;;6.40;5.73;;;15.40;99.90;;;;;;6272158;28;20458;-66
2023/05/16 11:59:07;;;;;;;4.80;4.50;;;15.60;99.90;;;;;;6275187;28;20810;-68
2023/05/16 12:02:10;;;;;;;4.30;3.93;;;15.80;99.90;;;;;;6273946;28;20470;-71
2023/05/16 12:05:15;;;;;;;4.53;4.13;;;15.90;99.90;;;;;;6274805;28;20478;-70
2023/05/16 12:08:20;;;;;;;6.90;4.43;;;16.00;99.90;;;;;;6263391;28;20470;-69
2023/05/16 12:11:24;;;;;;;5.23;4.73;;;16.00;99.90;;;;;;6271837;28;20799;-69
2023/05/16 12:14:28;;;;;;;4.20;3.90;;;15.90;99.90;;;;;;6275358;28;20806;-69
2023/05/16 12:17:32;;;;;;;7.00;4.67;;;15.80;99.90;;;;;;6275611;28;20470;-69
2023/05/16 12:20:36;;;;;;;4.73;3.90;;;15.70;99.90;;;;;;6274186;28;20497;-70
2023/05/16 12:23:39;;;;;;;7.70;4.60;;;15.60;99.90;;;;;;6275404;28;20953;-70
2023/05/16 12:26:43;;;;;;;4.40;4.07;;;15.40;99.90;;;;;;6272038;28;20474;-70
2023/05/16 12:29:49;;;;;;;3.90;3.50;;;15.40;99.90;;;;;;6274843;28;20829;-70
2023/05/16 12:32:55;;;;;;;3.77;3.50;;;15.30;99.90;;;;;;6277667;28;20553;-70
2023/05/16 12:36:00;;;;;;;3.80;3.50;;;15.40;99.90;;;;;;6276529;28;20466;-70
2023/05/16 12:39:04;;;;;;;3.70;3.40;;;15.30;99.90;;;;;;6274774;28;20473;-69
2023/05/16 12:42:08;;;;;;;4.13;3.83;;;15.40;99.90;;;;;;6275035;28;20480;-69
2023/05/16 12:45:16;;;;;;;3.17;2.90;;;15.40;99.90;;;;;;6274487;28;20965;-70
2023/05/16 12:48:20;;;;;;;3.67;3.37;;;15.50;99.90;;;;;;6273894;28;20564;-70
2023/05/16 12:51:23;;;;;;;5.37;3.83;;;15.60;99.90;;;;;;6274517;28;20474;-70
2023/05/16 12:54:26;;;;;;;3.60;3.30;;;15.70;99.90;;;;;;6274331;28;20469;-70
2023/05/16 12:57:30;;;;;;;3.87;3.40;;;15.80;99.90;;;;;;6274635;28;20973;-70
2023/05/16 13:00:38;;;;;;;3.53;3.23;;;16.10;99.90;;;;;;6273918;28;20504;-71
2023/05/16 13:03:41;;;;;;;3.80;3.00;;;16.40;99.90;;;;;;6274687;28;20516;-70
2023/05/16 13:06:45;;;;;;;3.47;2.90;;;16.70;99.90;;;;;;6274344;28;20501;-70
2023/05/16 13:10:00;;;;;;;3.50;3.23;;;16.80;99.90;;;;;;6274133;28;20485;-70
2023/05/16 13:13:04;;;;;;;3.13;2.93;;;16.90;99.90;;;;;;6274039;28;20488;-70
2023/05/16 13:16:09;;;;;;;2.23;2.13;;;17.00;99.90;;;;;;6274171;28;20484;-70
2023/05/16 13:19:12;;;;;;;3.80;2.60;;;17.10;99.90;;;;;;6273746;28;20474;-70
2023/05/16 13:22:15;;;;;;;3.10;2.90;;;17.10;99.90;;;;;;6274164;28;20480;-70
2023/05/16 13:25:19;;;;;;;2.70;2.50;;;17.00;99.90;;;;;;6264843;28;20472;-70
2023/05/16 13:28:23;;;;;;;2.97;2.70;;;16.80;99.90;;;;;;6273804;28;20549;-70
2023/05/16 13:31:28;;;;;;;2.77;2.57;;;16.60;99.90;;;;;;6274072;28;20477;-70
2023/05/16 13:34:31;;;;;;;2.50;2.30;;;16.40;99.90;;;;;;6273769;28;20474;-70
2023/05/16 13:37:34;;;;;;;2.27;2.07;;;16.20;99.90;;;;;;6274201;28;20477;-70
2023/05/16 13:40:37;;;;;;;2.97;2.30;;;16.10;99.90;;;;;;6273836;28;20462;-70
2023/05/16 13:43:41;;;;;;;2.83;2.53;;;16.00;99.90;;;;;;6274408;28;20430;-71
2023/05/16 13:46:45;;;;;;;2.63;2.40;;;16.00;99.90;;;;;;6273953;28;20456;-70
2023/05/16 13:49:49;;;;;;;2.80;2.60;;;15.90;99.90;;;;;;6273917;28;20478;-70
2023/05/16 13:52:52;;;;;;;3.33;3.00;;;15.90;99.90;;;;;;6273013;28;20984;-70
2023/05/16 13:55:55;;;;;;;3.57;2.20;;;15.80;99.90;;;;;;6273791;28;20449;-70
2023/05/16 13:58:59;;;;;;;2.33;2.23;;;15.80;99.90;;;;;;6273841;28;20470;-70
2023/05/16 14:02:10;;;;;;;3.90;2.60;;;15.70;99.90;;;;;;6278162;28;20470;-70
2023/05/16 14:05:14;;;;;;;2.53;2.33;;;15.60;99.90;;;;;;6278330;28;20484;-71
2023/05/16 14:08:17;;;;;;;2.43;2.23;;;15.50;99.90;;;;;;6278564;28;20615;-71
2023/05/16 14:11:25;;;;;;;2.80;2.60;;;15.50;99.90;;;;;;6278319;28;20969;-70
2023/05/16 14:14:31;;;;;;;5.33;3.17;;;15.50;99.90;;;;;;6278036;28;20980;-70
2023/05/16 14:17:35;;;;;;;2.60;2.40;;;15.50;99.90;;;;;;6278124;28;20603;-71
2023/05/16 14:20:38;;;;;;;2.87;2.67;;;15.40;99.90;;;;;;6278152;28;20548;-71
2023/05/16 14:23:42;;;;;;;3.00;2.50;;;15.30;99.90;;;;;;6281512;28;20461;-71
2023/05/16 14:26:45;;;;;;;3.27;3.07;;;15.30;99.90;;;;;;6290675;28;20476;-70
2023/05/16 14:29:48;;;;;;;3.03;2.83;;;15.40;99.90;;;;;;6279424;28;20557;-70
2023/05/16 14:32:53;;;;;;;3.07;2.87;;;15.40;99.90;;;;;;6277501;28;20472;-70
2023/05/16 14:35:56;;;;;;;3.00;2.70;;;15.30;99.90;;;;;;6278205;28;20477;-71
2023/05/16 14:38:59;;;;;;;3.77;3.23;;;15.30;99.90;;;;;;6277351;28;20489;-70
2023/05/16 14:42:02;;;;;;;3.30;3.00;;;15.10;99.90;;;;;;6277780;28;20481;-71
2023/05/16 14:45:12;;;;;;;2.97;2.77;;;15.00;99.90;;;;;;6277341;28;20754;-71
2023/05/16 14:48:20;;;;;;;4.20;3.40;;;15.00;99.90;;;;;;6277323;28;20470;-71
2023/05/16 14:51:23;;;;;;;4.00;3.57;;;14.80;99.90;;;;;;6277415;28;20478;-69
2023/05/16 14:54:26;;;;;;;2.77;2.57;;;14.80;99.90;;;;;;6277237;28;20478;-69
2023/05/16 14:57:30;;;;;;;3.40;3.20;;;14.80;99.90;;;;;;6275962;28;20799;-70
2023/05/16 15:00:33;;;;;;;3.83;3.53;;;14.70;99.90;;;;;;6276715;28;20953;-70
2023/05/16 15:03:38;;;;;;;3.40;3.10;;;14.70;99.90;;;;;;6276630;28;20861;-70
2023/05/16 15:06:44;;;;;;;4.37;3.97;;;14.70;99.90;;;;;;6277675;28;20481;-70
2023/05/16 15:09:47;;;;;;;4.20;3.80;;;14.70;99.90;;;;;;6277579;28;20557;-71
2023/05/16 15:12:53;;;;;;;5.27;3.70;;;14.60;99.90;;;;;;6278117;28;20474;-71
2023/05/16 15:15:56;;;;;;;4.03;3.33;;;14.50;99.90;;;;;;6277717;28;21024;-68
2023/05/16 15:19:01;;;;;;;3.37;3.13;;;14.50;99.90;;;;;;6274535;28;20548;-68
2023/05/16 15:22:06;;;;;;;4.53;3.43;;;14.50;99.90;;;;;;6277169;28;20473;-68
2023/05/16 15:25:10;;;;;;;8.93;3.70;;;14.40;99.90;;;;;;6274115;28;20466;-67
2023/05/16 15:28:13;;;;;;;6.70;4.40;;;14.40;99.90;;;;;;6276236;28;20853;-68
2023/05/16 15:31:17;;;;;;;4.40;3.90;;;14.30;99.90;;;;;;6276314;28;20500;-67
2023/05/16 15:34:21;;;;;;;4.03;3.73;;;14.30;99.90;;;;;;6271708;28;20945;-67
2023/05/16 15:37:25;;;;;;;7.13;3.87;;;14.20;99.90;;;;;;6270862;28;20462;-67
2023/05/16 15:40:28;;;;;;;4.60;3.93;;;14.10;99.90;;;;;;6256765;28;20485;-67
2023/05/16 15:43:31;;;;;;;4.83;4.03;;;14.00;99.90;;;;;;6255931;28;20492;-67
2023/05/16 15:46:35;;;;;;;4.43;3.63;;;13.90;99.90;;;;;;6267885;28;20964;-67
2023/05/16 15:49:40;;;;;;;4.60;3.77;;;13.80;99.90;;;;;;6275877;28;20481;-67
2023/05/16 15:52:43;;;;;;;4.07;3.67;;;13.80;99.90;;;;;;6276062;28;20470;-66
2023/05/16 15:55:47;;;;;;;5.23;4.17;;;13.70;99.90;;;;;;6275787;28;20442;-70
2023/05/16 15:58:50;;;;;;;4.20;3.70;;;13.70;99.90;;;;;;6275556;28;20450;-65